Time,TemperatureF,DewpointF,PressureIn,WindDirection,WindDirectionDegrees,WindSpeedMPH,WindSpeedGustMPH,Humidity,HourlyPrecipIn,Conditions,Clouds,dailyrainin,SoftwareType,DateUTC
2013-08-09 00:01:00,62.0,43.0,-100.00,ESE,112,2.0,5.0,48,0.00,,,0.00,,2013-08-09 06:01:00,
2013-08-09 00:21:00,62.0,42.0,-100.00,SSE,151,2.0,5.0,49,0.00,,,0.00,,2013-08-09 06:21:00,
2013-08-09 00:32:00,62.0,42.0,-100.00,SSE,151,2.0,5.0,49,0.00,,,0.00,,2013-08-09 06:32:00,
2013-08-09 00:43:00,61.0,43.0,-100.00,SSE,152,6.0,10.0,52,0.00,,,0.00,,2013-08-09 06:43:00,
2013-08-09 00:52:00,61.0,43.0,-100.00,SSE,152,6.0,10.0,52,0.00,,,0.00,,2013-08-09 06:52:00,
2013-08-09 01:01:00,61.0,43.0,-100.00,SSE,152,6.0,10.0,52,0.00,,,0.00,,2013-08-09 07:01:00,
2013-08-09 01:12:00,61.0,43.0,-100.00,SSE,152,6.0,10.0,52,0.00,,,0.00,,2013-08-09 07:12:00,
2013-08-09 01:22:00,60.0,44.0,-100.00,South,171,3.0,4.0,56,0.00,,,0.00,,2013-08-09 07:22:00,
2013-08-09 01:33:00,60.0,44.0,-100.00,South,171,3.0,4.0,56,0.00,,,0.00,,2013-08-09 07:33:00,
2013-08-09 01:43:00,59.0,45.0,-100.00,South,185,5.0,8.0,60,0.00,,,0.00,,2013-08-09 07:43:00,
2013-08-09 01:53:00,59.0,45.0,-100.00,South,185,5.0,8.0,60,0.00,,,0.00,,2013-08-09 07:53:00,
2013-08-09 02:02:00,59.0,45.0,-100.00,South,185,5.0,8.0,60,0.00,,,0.00,,2013-08-09 08:02:00,
2013-08-09 02:22:00,59.0,43.0,-100.00,SSE,158,6.0,9.0,56,0.00,,,0.00,,2013-08-09 08:22:00,
2013-08-09 02:32:00,59.0,43.0,-100.00,SSE,158,6.0,9.0,56,0.00,,,0.00,,2013-08-09 08:32:00,
2013-08-09 02:43:00,60.0,42.0,-100.00,SE,137,6.0,9.0,53,0.00,,,0.00,,2013-08-09 08:43:00,
2013-08-09 02:53:00,60.0,42.0,-100.00,SE,134,6.0,10.0,52,0.00,,,0.00,,2013-08-09 08:53:00,
2013-08-09 03:02:00,60.0,42.0,-100.00,SE,134,6.0,10.0,52,0.00,,,0.00,,2013-08-09 09:02:00,
2013-08-09 03:22:00,60.0,42.0,-100.00,ESE,117,5.0,9.0,53,0.00,,,0.00,,2013-08-09 09:22:00,
2013-08-09 03:32:00,60.0,42.0,-100.00,ESE,117,5.0,9.0,53,0.00,,,0.00,,2013-08-09 09:32:00,
2013-08-09 03:43:00,60.0,42.0,-100.00,ESE,117,5.0,9.0,53,0.00,,,0.00,,2013-08-09 09:43:00,
2013-08-09 04:12:00,58.0,44.0,-100.00,SE,138,7.0,11.0,59,0.00,,,0.00,,2013-08-09 10:12:00,
2013-08-09 04:22:00,57.0,44.0,-100.00,SSE,158,5.0,11.0,62,0.00,,,0.00,,2013-08-09 10:22:00,
2013-08-09 04:32:00,57.0,44.0,-100.00,SSE,158,5.0,11.0,62,0.00,,,0.00,,2013-08-09 10:32:00,
2013-08-09 04:43:00,57.0,45.0,-100.00,SE,128,5.0,7.0,63,0.00,,,0.00,,2013-08-09 10:43:00,
2013-08-09 04:53:00,57.0,45.0,-100.00,SE,128,5.0,7.0,63,0.00,,,0.00,,2013-08-09 10:53:00,
2013-08-09 05:01:00,57.0,45.0,-100.00,SE,128,5.0,7.0,63,0.00,,,0.00,,2013-08-09 11:01:00,
2013-08-09 05:11:00,57.0,45.0,-100.00,SE,128,5.0,7.0,63,0.00,,,0.00,,2013-08-09 11:11:00,
2013-08-09 05:43:00,56.0,46.0,-100.00,SSE,164,4.0,7.0,68,0.00,,,0.00,,2013-08-09 11:43:00,
2013-08-09 05:53:00,56.0,46.0,-100.00,SSE,164,4.0,7.0,68,0.00,,,0.00,,2013-08-09 11:53:00,
2013-08-09 06:02:00,56.0,46.0,-100.00,SSE,164,4.0,7.0,68,0.00,,,0.00,,2013-08-09 12:02:00,
2013-08-09 06:12:00,56.0,46.0,-100.00,SSE,164,4.0,7.0,68,0.00,,,0.00,,2013-08-09 12:12:00,
2013-08-09 06:22:00,56.0,46.0,-100.00,South,191,2.0,3.0,69,0.00,,,0.00,,2013-08-09 12:22:00,
2013-08-09 06:32:00,56.0,46.0,-100.00,South,191,2.0,3.0,69,0.00,,,0.00,,2013-08-09 12:32:00,
2013-08-09 06:43:00,56.0,46.0,-100.00,South,191,2.0,4.0,70,0.00,,,0.00,,2013-08-09 12:43:00,
2013-08-09 06:52:00,56.0,46.0,-100.00,South,191,2.0,4.0,70,0.00,,,0.00,,2013-08-09 12:52:00,
2013-08-09 07:01:00,56.0,46.0,-100.00,South,191,2.0,4.0,70,0.00,,,0.00,,2013-08-09 13:01:00,
2013-08-09 07:23:00,55.0,47.0,-100.00,SSW,199,2.0,4.0,72,0.00,,,0.00,,2013-08-09 13:23:00,
2013-08-09 07:32:00,55.0,47.0,-100.00,SSW,199,2.0,4.0,72,0.00,,,0.00,,2013-08-09 13:32:00,
2013-08-09 07:43:00,56.0,47.0,-100.00,South,178,2.0,4.0,73,0.00,,,0.00,,2013-08-09 13:43:00,
2013-08-09 07:52:00,56.0,47.0,-100.00,South,178,2.0,4.0,73,0.00,,,0.00,,2013-08-09 13:52:00,
2013-08-09 08:02:00,56.0,47.0,-100.00,South,178,2.0,4.0,73,0.00,,,0.00,,2013-08-09 14:02:00,
2013-08-09 08:11:00,56.0,47.0,-100.00,South,178,2.0,4.0,73,0.00,,,0.00,,2013-08-09 14:11:00,
2013-08-09 08:22:00,56.0,48.0,-100.00,SSW,205,1.0,2.0,74,0.00,,,0.00,,2013-08-09 14:22:00,
2013-08-09 08:33:00,56.0,48.0,-100.00,SSW,205,1.0,2.0,74,0.00,,,0.00,,2013-08-09 14:33:00,
2013-08-09 08:43:00,58.0,48.0,-100.00,SSW,205,1.0,2.0,70,0.00,,,0.00,,2013-08-09 14:43:00,
2013-08-09 08:53:00,58.0,48.0,-100.00,SSW,205,1.0,2.0,70,0.00,,,0.00,,2013-08-09 14:53:00,
2013-08-09 09:01:00,58.0,48.0,-100.00,SSW,205,1.0,2.0,70,0.00,,,0.00,,2013-08-09 15:01:00,
2013-08-09 09:22:00,58.0,48.0,-100.00,ESE,103,2.0,4.0,69,0.00,,,0.00,,2013-08-09 15:22:00,
2013-08-09 09:30:00,62.0,47.0,-100.00,ESE,107,3.0,5.0,58,0.00,,,0.00,,2013-08-09 15:30:00,
2013-08-09 09:32:00,58.0,48.0,-100.00,ESE,103,2.0,4.0,69,0.00,,,0.00,,2013-08-09 15:32:00,
2013-08-09 09:44:00,58.0,48.0,-100.00,ESE,103,2.0,4.0,69,0.00,,,0.00,,2013-08-09 15:44:00,
2013-08-09 10:22:00,62.0,47.0,-100.00,ESE,107,3.0,5.0,58,0.00,,,0.00,,2013-08-09 16:22:00,
2013-08-09 10:43:00,64.0,47.0,-100.00,ESE,120,4.0,7.0,53,0.00,,,0.00,,2013-08-09 16:43:00,
2013-08-09 10:53:00,64.0,47.0,-100.00,ESE,120,4.0,7.0,53,0.00,,,0.00,,2013-08-09 16:53:00,
2013-08-09 11:02:00,64.0,47.0,-100.00,ESE,120,4.0,7.0,53,0.00,,,0.00,,2013-08-09 17:02:00,
2013-08-09 11:22:00,64.0,47.0,-100.00,ESE,120,7.0,11.0,53,0.00,,,0.00,,2013-08-09 17:22:00,
2013-08-09 11:33:00,64.0,47.0,-100.00,ESE,120,7.0,11.0,53,0.00,,,0.00,,2013-08-09 17:33:00,
2013-08-09 11:52:00,67.0,46.0,-100.00,SSE,148,5.0,9.0,48,0.00,,,0.00,,2013-08-09 17:52:00,
2013-08-09 12:01:00,67.0,46.0,-100.00,SSE,148,5.0,9.0,48,0.00,,,0.00,,2013-08-09 18:01:00,
2013-08-09 12:22:00,67.0,46.0,-100.00,East,97,3.0,7.0,46,0.00,,,0.00,,2013-08-09 18:22:00,
2013-08-09 12:32:00,67.0,46.0,-100.00,East,97,3.0,7.0,46,0.00,,,0.00,,2013-08-09 18:32:00,
2013-08-09 12:53:00,69.0,46.0,-100.00,ESE,110,5.0,8.0,44,0.00,,,0.00,,2013-08-09 18:53:00,
2013-08-09 13:02:00,69.0,46.0,-100.00,ESE,110,5.0,8.0,44,0.00,,,0.00,,2013-08-09 19:02:00,
2013-08-09 13:22:00,74.0,46.0,-100.00,SW,230,2.0,4.0,36,0.00,,,0.00,,2013-08-09 19:22:00,
2013-08-09 13:30:00,72.0,45.0,-100.00,NE,48,3.0,5.0,37,0.00,,,0.00,,2013-08-09 19:30:00,
2013-08-09 13:32:00,74.0,46.0,-100.00,SW,230,2.0,4.0,36,0.00,,,0.00,,2013-08-09 19:32:00,
2013-08-09 13:43:00,74.0,46.0,-100.00,SW,230,2.0,4.0,36,0.00,,,0.00,,2013-08-09 19:43:00,
2013-08-09 14:02:00,72.0,45.0,-100.00,NE,48,3.0,5.0,37,0.00,,,0.00,,2013-08-09 20:02:00,
2013-08-09 14:11:00,72.0,45.0,-100.00,NE,48,3.0,5.0,37,0.00,,,0.00,,2013-08-09 20:11:00,
2013-08-09 14:22:00,72.0,45.0,-100.00,NE,48,3.0,5.0,37,0.00,,,0.00,,2013-08-09 20:22:00,
2013-08-09 15:12:00,75.0,42.0,-100.00,South,169,6.0,13.0,32,0.00,,,0.00,,2013-08-09 21:12:00,
2013-08-09 15:22:00,75.0,42.0,-100.00,South,169,6.0,13.0,32,0.00,,,0.00,,2013-08-09 21:22:00,
2013-08-09 15:32:00,73.0,43.0,-100.00,ESE,114,7.0,11.0,34,0.00,,,0.00,,2013-08-09 21:32:00,
2013-08-09 15:43:00,73.0,43.0,-100.00,ESE,114,7.0,11.0,34,0.00,,,0.00,,2013-08-09 21:43:00,
2013-08-09 15:52:00,73.0,43.0,-100.00,ESE,114,7.0,11.0,34,0.00,,,0.00,,2013-08-09 21:52:00,
2013-08-09 16:11:00,73.0,42.0,-100.00,SE,141,8.0,12.0,33,0.00,,,0.00,,2013-08-09 22:11:00,
2013-08-09 16:22:00,73.0,42.0,-100.00,SE,141,8.0,12.0,33,0.00,,,0.00,,2013-08-09 22:22:00,
2013-08-09 16:32:00,72.0,42.0,-100.00,ESE,109,6.0,11.0,33,0.00,,,0.00,,2013-08-09 22:32:00,
2013-08-09 16:42:00,72.0,39.0,-100.00,SE,130,8.0,11.0,31,0.00,,,0.00,,2013-08-09 22:42:00,
2013-08-09 17:01:00,72.0,40.0,-100.00,SE,141,5.0,9.0,32,0.00,,,0.00,,2013-08-09 23:01:00,
2013-08-09 17:11:00,72.0,40.0,-100.00,SE,141,5.0,9.0,32,0.00,,,0.00,,2013-08-09 23:11:00,
2013-08-09 17:43:00,61.0,47.0,-100.00,SSE,162,9.0,15.0,61,0.09,,,0.02,,2013-08-09 23:43:00,
2013-08-09 18:22:00,51.0,51.0,-100.00,SSE,164,4.0,6.0,99,0.00,,,0.15,,2013-08-10 00:22:00,
2013-08-09 18:33:00,52.0,51.0,-100.00,West,268,4.0,6.0,97,0.00,,,0.15,,2013-08-10 00:33:00,
2013-08-09 18:52:00,52.0,51.0,-100.00,West,268,4.0,6.0,97,0.00,,,0.15,,2013-08-10 00:52:00,
2013-08-09 19:01:00,53.0,51.0,-100.00,NW,323,10.0,12.0,92,0.00,,,0.15,,2013-08-10 01:01:00,
2013-08-09 19:11:00,53.0,51.0,-100.00,NW,323,10.0,12.0,92,0.00,,,0.15,,2013-08-10 01:11:00,
2013-08-09 19:21:00,53.0,51.0,-100.00,NW,323,10.0,12.0,92,0.00,,,0.15,,2013-08-10 01:21:00,
2013-08-09 19:32:00,54.0,51.0,-100.00,NW,309,7.0,11.0,87,0.00,,,0.15,,2013-08-10 01:32:00,
2013-08-09 19:42:00,54.0,51.0,-100.00,NW,309,7.0,11.0,87,0.00,,,0.15,,2013-08-10 01:42:00,
2013-08-09 19:52:00,54.0,51.0,-100.00,NW,309,7.0,11.0,87,0.00,,,0.15,,2013-08-10 01:52:00,
2013-08-09 20:03:00,54.0,51.0,-100.00,NNW,335,4.0,6.0,91,0.00,,,0.15,,2013-08-10 02:03:00,
2013-08-09 20:11:00,54.0,51.0,-100.00,NNW,335,4.0,6.0,91,0.00,,,0.15,,2013-08-10 02:11:00,
2013-08-09 20:21:00,54.0,51.0,-100.00,NNW,335,4.0,6.0,91,0.00,,,0.15,,2013-08-10 02:21:00,
2013-08-09 20:32:00,54.0,51.0,-100.00,North,349,3.0,4.0,91,0.00,,,0.15,,2013-08-10 02:32:00,
2013-08-09 20:42:00,54.0,51.0,-100.00,North,349,3.0,4.0,91,0.00,,,0.15,,2013-08-10 02:42:00,
2013-08-09 20:52:00,54.0,51.0,-100.00,North,349,3.0,4.0,91,0.00,,,0.15,,2013-08-10 02:52:00,
2013-08-09 21:01:00,52.0,51.0,-100.00,NW,320,4.0,5.0,94,0.00,,,0.15,,2013-08-10 03:01:00,
2013-08-09 21:11:00,52.0,51.0,-100.00,NW,320,4.0,5.0,94,0.00,,,0.15,,2013-08-10 03:11:00,
2013-08-09 21:21:00,52.0,51.0,-100.00,NW,320,4.0,5.0,94,0.00,,,0.15,,2013-08-10 03:21:00,
2013-08-09 21:42:00,51.0,48.0,-100.00,NW,325,6.0,7.0,88,0.00,,,0.15,,2013-08-10 03:42:00,
2013-08-09 21:52:00,51.0,48.0,-100.00,NW,325,6.0,7.0,88,0.00,,,0.15,,2013-08-10 03:52:00,
2013-08-09 22:01:00,53.0,47.0,-100.00,NW,323,5.0,7.0,79,0.00,,,0.15,,2013-08-10 04:01:00,
2013-08-09 22:12:00,53.0,47.0,-100.00,NW,323,5.0,7.0,79,0.00,,,0.15,,2013-08-10 04:12:00,
2013-08-09 22:22:00,53.0,47.0,-100.00,NW,323,5.0,7.0,79,0.00,,,0.15,,2013-08-10 04:22:00,
2013-08-09 22:32:00,51.0,47.0,-100.00,NW,311,5.0,6.0,87,0.00,,,0.15,,2013-08-10 04:32:00,
2013-08-09 22:43:00,50.0,47.0,-100.00,NW,325,5.0,7.0,90,0.00,,,0.15,,2013-08-10 04:43:00,
2013-08-09 22:53:00,51.0,47.0,-100.00,WNW,298,4.0,6.0,87,0.00,,,0.15,,2013-08-10 04:53:00,
2013-08-09 23:02:00,51.0,47.0,-100.00,WNW,298,4.0,6.0,87,0.00,,,0.15,,2013-08-10 05:02:00,
2013-08-09 23:11:00,51.0,47.0,-100.00,WNW,298,4.0,6.0,87,0.00,,,0.15,,2013-08-10 05:11:00,
2013-08-09 23:22:00,50.0,46.0,-100.00,NW,311,4.0,6.0,88,0.00,,,0.15,,2013-08-10 05:22:00,
2013-08-09 23:32:00,50.0,46.0,-100.00,NW,311,4.0,6.0,88,0.00,,,0.15,,2013-08-10 05:32:00,
2013-08-09 23:42:00,50.0,46.0,-100.00,NW,311,4.0,6.0,88,0.00,,,0.15,,2013-08-10 05:42:00,